createdAt,value
2018-06-19T00:01:08.759Z,2.67
2018-06-19T00:06:12.920Z,2.70
2018-06-19T00:11:16.167Z,2.20
2018-06-19T00:16:19.427Z,3.10
2018-06-19T00:21:31.756Z,3.30
2018-06-19T00:26:35.003Z,3.30
2018-06-19T00:31:38.243Z,3.40
2018-06-19T00:36:41.539Z,4.10
2018-06-19T00:41:44.804Z,4.00
2018-06-19T00:46:50.143Z,3.53
2018-06-19T00:51:53.379Z,3.27
2018-06-19T00:56:58.940Z,2.63
2018-06-19T01:02:02.203Z,3.00
2018-06-19T01:07:05.772Z,3.57
2018-06-19T01:12:09.035Z,14.13
2018-06-19T01:17:12.283Z,3.20
2018-06-19T01:22:15.457Z,7.77
2018-06-19T01:27:18.684Z,3.13
2018-06-19T01:32:21.873Z,3.10
2018-06-19T01:37:25.063Z,3.40
2018-06-19T01:42:28.280Z,4.17
2018-06-19T01:47:31.476Z,2.23
2018-06-19T01:52:34.690Z,3.90
2018-06-19T01:57:37.871Z,2.30
2018-06-19T02:02:41.071Z,3.50
2018-06-19T02:07:44.296Z,2.60
2018-06-19T02:12:47.527Z,3.10
2018-06-19T02:17:50.736Z,1.83
2018-06-19T02:22:56.952Z,3.17
2018-06-19T02:28:00.128Z,4.50
2018-06-19T02:33:03.287Z,2.07
2018-06-19T02:38:06.460Z,4.00
2018-06-19T02:43:09.660Z,3.57
2018-06-19T02:48:12.863Z,4.10
2018-06-19T02:53:16.056Z,6.23
2018-06-19T02:58:19.268Z,4.30
2018-06-19T03:03:22.459Z,2.37
2018-06-19T03:08:25.698Z,2.03
2018-06-19T03:13:28.880Z,4.63
2018-06-19T03:18:32.056Z,2.63
2018-06-19T03:23:35.228Z,2.33
2018-06-19T03:28:38.411Z,3.70
2018-06-19T03:33:41.614Z,6.30
2018-06-19T03:38:44.787Z,2.73
2018-06-19T03:43:47.960Z,2.60
2018-06-19T03:48:51.144Z,3.40
2018-06-19T03:53:54.320Z,1.77
2018-06-19T03:58:57.600Z,4.00
2018-06-19T04:04:00.878Z,3.10
2018-06-19T04:09:05.695Z,4.40
2018-06-19T04:14:08.884Z,2.67
2018-06-19T04:19:12.096Z,2.03
2018-06-19T04:24:15.304Z,2.53
2018-06-19T04:29:18.493Z,3.63
2018-06-19T04:34:21.676Z,3.80
2018-06-19T04:39:24.863Z,3.53
2018-06-19T04:44:28.065Z,2.60
2018-06-19T04:49:31.312Z,3.07
2018-06-19T04:54:34.627Z,3.27
2018-06-19T04:59:37.903Z,2.43
2018-06-19T05:04:41.934Z,3.03
2018-06-19T05:09:45.143Z,3.60
2018-06-19T05:14:48.323Z,4.73
2018-06-19T05:19:51.592Z,4.80
2018-06-19T05:24:54.868Z,7.33
2018-06-19T05:29:58.078Z,3.70
2018-06-19T05:35:01.324Z,5.20
2018-06-19T05:40:04.516Z,5.40
2018-06-19T05:45:07.703Z,4.17
2018-06-19T05:50:10.893Z,6.60
2018-06-19T05:55:14.120Z,4.63
2018-06-19T06:00:17.314Z,6.70
2018-06-19T06:05:20.541Z,5.60
2018-06-19T06:10:23.736Z,8.20
2018-06-19T06:15:26.923Z,7.50
2018-06-19T06:20:30.104Z,13.87
2018-06-19T06:25:33.272Z,6.60
2018-06-19T06:30:36.443Z,6.93
2018-06-19T06:35:39.616Z,9.40
2018-06-19T06:40:42.915Z,7.13
2018-06-19T06:45:46.096Z,10.73
2018-06-19T06:50:49.288Z,5.90
2018-06-19T06:55:52.467Z,8.10
2018-06-19T07:00:55.647Z,3.33
2018-06-19T07:05:58.825Z,12.67
2018-06-19T07:11:02.028Z,18.63
2018-06-19T07:16:05.304Z,15.67
2018-06-19T07:21:08.479Z,9.43
2018-06-19T07:26:11.705Z,11.07
2018-06-19T07:31:14.847Z,9.53
2018-06-19T07:36:18.035Z,9.73
2018-06-19T07:41:21.355Z,9.33
2018-06-19T07:46:24.544Z,10.93
2018-06-19T07:51:27.727Z,14.07
2018-06-19T07:56:30.907Z,12.30
2018-06-19T08:01:34.092Z,10.17
2018-06-19T08:06:37.285Z,14.30
2018-06-19T08:11:40.571Z,13.70
2018-06-19T08:16:43.771Z,11.00
2018-06-19T08:21:46.980Z,12.97
2018-06-19T08:26:50.204Z,14.80
2018-06-19T08:31:53.409Z,15.53
2018-06-19T08:36:56.603Z,12.70
2018-06-19T08:41:59.800Z,16.07
2018-06-19T08:47:02.989Z,12.63
2018-06-19T08:52:06.159Z,14.80
2018-06-19T08:57:09.336Z,16.40
2018-06-19T09:02:12.541Z,16.70
2018-06-19T09:07:15.767Z,15.70
2018-06-19T09:12:18.987Z,16.63
2018-06-19T09:17:22.192Z,21.40
2018-06-19T09:22:25.396Z,20.90
2018-06-19T09:27:28.596Z,17.53
2018-06-19T09:32:31.792Z,24.83
2018-06-19T09:37:34.985Z,24.73
2018-06-19T09:42:38.483Z,17.80
2018-06-19T09:47:41.980Z,22.73
2018-06-19T09:52:44.952Z,21.87
2018-06-19T09:57:48.152Z,25.07
2018-06-19T10:02:51.522Z,29.73
2018-06-19T10:07:54.711Z,19.27
2018-06-19T10:12:58.072Z,27.53
2018-06-19T10:18:01.251Z,25.63
2018-06-19T10:23:04.463Z,25.23
2018-06-19T10:28:07.668Z,21.30
2018-06-19T10:33:10.862Z,19.73
2018-06-19T10:38:14.040Z,22.37
2018-06-19T10:43:17.263Z,19.77
2018-06-19T10:48:20.463Z,26.53
2018-06-19T10:53:23.692Z,22.03
2018-06-19T10:58:26.884Z,17.00
2018-06-19T11:03:30.092Z,17.93
2018-06-19T11:08:33.304Z,18.60
2018-06-19T11:13:36.483Z,15.53
2018-06-19T11:18:39.681Z,18.37
2018-06-19T11:23:42.879Z,17.13
2018-06-19T11:28:46.077Z,15.20
2018-06-19T11:33:49.275Z,14.20
2018-06-19T11:38:52.481Z,15.10
2018-06-19T11:43:55.688Z,16.10
2018-06-19T11:48:58.881Z,16.30
2018-06-19T11:54:02.343Z,14.90
2018-06-19T11:59:05.561Z,13.63
2018-06-19T12:04:08.767Z,12.97
2018-06-19T12:09:12.061Z,12.33
2018-06-19T12:14:15.252Z,13.00
2018-06-19T12:19:18.448Z,10.60
2018-06-19T12:24:21.651Z,13.83
2018-06-19T12:29:24.851Z,10.40
2018-06-19T12:34:28.048Z,9.90
2018-06-19T12:39:31.227Z,8.50
2018-06-19T12:44:34.428Z,7.87
2018-06-19T12:49:49.315Z,7.40
2018-06-19T12:55:10.097Z,10.47
2018-06-19T13:00:13.922Z,13.50
2018-06-19T13:05:28.828Z,13.97
2018-06-19T13:10:32.185Z,14.83
2018-06-19T13:15:36.441Z,14.67
2018-06-19T13:20:45.783Z,16.20
2018-06-19T13:25:48.980Z,17.27
2018-06-19T13:31:08.104Z,17.83
2018-06-19T13:36:11.305Z,15.63
2018-06-19T13:41:27.967Z,22.30
2018-06-19T13:46:31.176Z,21.90
2018-06-19T13:51:34.380Z,22.57
2018-06-19T13:57:09.340Z,24.27
2018-06-19T14:02:12.560Z,22.60
2018-06-19T14:07:15.808Z,20.90
2018-06-19T14:13:13.232Z,20.00
2018-06-19T14:18:17.684Z,20.83
2018-06-19T14:23:20.882Z,22.87
2018-06-19T14:28:24.076Z,18.10
2018-06-19T14:33:27.266Z,20.57
2018-06-19T14:38:30.460Z,16.43
2018-06-19T14:43:34.243Z,19.47
2018-06-19T14:48:37.393Z,18.83
2018-06-19T14:53:40.608Z,17.17
2018-06-19T14:58:43.816Z,17.00
2018-06-19T15:03:47.044Z,18.67
2018-06-19T15:08:50.271Z,16.97
2018-06-19T15:13:53.475Z,13.47
2018-06-19T15:18:56.868Z,14.20
2018-06-19T15:24:00.251Z,13.27
2018-06-19T15:29:03.459Z,14.97
2018-06-19T15:34:06.925Z,13.10
2018-06-19T15:39:12.084Z,13.77
2018-06-19T15:44:15.281Z,12.60
2018-06-19T15:49:18.516Z,13.87
2018-06-19T15:54:23.047Z,13.20
2018-06-19T15:59:26.293Z,12.87
2018-06-19T16:04:29.835Z,14.27
2018-06-19T16:09:33.028Z,13.20
2018-06-19T16:14:36.207Z,13.37
2018-06-19T16:19:39.389Z,13.00
2018-06-19T16:24:42.572Z,12.87
2018-06-19T16:29:45.848Z,12.80
2018-06-19T16:34:49.048Z,13.50
2018-06-19T16:39:52.220Z,14.40
2018-06-19T16:44:55.543Z,13.57
2018-06-19T16:49:58.724Z,12.43
2018-06-19T16:55:02.217Z,12.20
2018-06-19T17:00:06.470Z,13.13
2018-06-19T17:05:09.597Z,10.33
2018-06-19T17:10:13.900Z,11.53
2018-06-19T17:15:17.556Z,10.53
2018-06-19T17:20:21.044Z,10.63
2018-06-19T17:25:24.294Z,11.00
2018-06-19T17:30:29.124Z,11.10
2018-06-19T17:35:32.336Z,8.73
2018-06-19T17:40:35.537Z,9.33
2018-06-19T17:45:38.691Z,9.57
2018-06-19T17:50:41.869Z,9.20
2018-06-19T17:55:45.030Z,9.53
2018-06-19T18:00:48.196Z,8.53
2018-06-19T18:05:51.369Z,7.90
2018-06-19T18:10:54.542Z,7.83
2018-06-19T18:15:57.697Z,8.77
2018-06-19T18:21:01.752Z,6.80
2018-06-19T18:26:04.767Z,7.60
2018-06-19T18:31:07.935Z,9.33
2018-06-19T18:36:11.125Z,7.47
2018-06-19T18:41:14.309Z,6.47
2018-06-19T18:46:17.500Z,7.47
2018-06-19T18:51:20.656Z,6.30
2018-06-19T18:56:23.832Z,7.30
2018-06-19T19:01:27.017Z,7.00
2018-06-19T19:06:30.196Z,7.20
2018-06-19T19:11:33.383Z,7.03
2018-06-19T19:16:41.921Z,5.67
2018-06-19T19:21:45.127Z,6.30
2018-06-19T19:26:53.620Z,6.97
2018-06-19T19:31:56.808Z,7.00
2018-06-19T19:37:05.330Z,6.27
2018-06-19T19:42:08.504Z,7.10
2018-06-19T19:47:17.030Z,6.87
2018-06-19T19:52:20.220Z,7.80
2018-06-19T19:57:28.860Z,8.30
2018-06-19T20:02:32.032Z,7.20
2018-06-19T20:07:35.196Z,8.00
2018-06-19T20:12:38.392Z,7.07
2018-06-19T20:17:41.588Z,7.67
2018-06-19T20:22:44.717Z,8.23
2018-06-19T20:27:47.892Z,7.40
2018-06-19T20:32:51.064Z,6.80
2018-06-19T20:37:54.251Z,7.30
2018-06-19T20:42:57.423Z,7.10
2018-06-19T20:48:00.659Z,6.20
2018-06-19T20:53:03.867Z,7.07
2018-06-19T20:58:07.048Z,7.10
2018-06-19T21:03:10.009Z,6.10
2018-06-19T21:08:13.171Z,7.20
2018-06-19T21:13:16.389Z,7.13
2018-06-19T21:18:19.572Z,6.73
2018-06-19T21:23:22.757Z,7.57
2018-06-19T21:28:25.927Z,6.27
2018-06-19T21:33:29.104Z,6.00
2018-06-19T21:38:32.287Z,6.23
2018-06-19T21:43:35.484Z,6.30
2018-06-19T21:48:38.679Z,6.57
2018-06-19T21:53:41.855Z,6.50
2018-06-19T21:58:45.052Z,6.13
2018-06-19T22:03:48.564Z,5.43
2018-06-19T22:08:52.112Z,6.13
2018-06-19T22:13:55.281Z,6.97
2018-06-19T22:18:58.233Z,5.97
2018-06-19T22:24:01.407Z,5.60
2018-06-19T22:29:04.643Z,6.50
2018-06-19T22:34:07.833Z,6.30
2018-06-19T22:39:11.024Z,5.73
2018-06-19T22:44:14.202Z,5.37
2018-06-19T22:49:17.372Z,5.73
2018-06-19T22:54:20.664Z,5.60
2018-06-19T22:59:23.827Z,5.17
2018-06-19T23:04:26.988Z,5.50
2018-06-19T23:09:30.179Z,5.43
2018-06-19T23:14:33.367Z,5.60
2018-06-19T23:19:36.519Z,5.30
2018-06-19T23:24:39.698Z,5.13
2018-06-19T23:29:42.879Z,5.00
2018-06-19T23:34:46.056Z,6.20
2018-06-19T23:39:49.244Z,5.20
2018-06-19T23:44:52.447Z,6.57
2018-06-19T23:49:55.626Z,6.97
2018-06-19T23:54:58.920Z,5.60
